sensor_id;sensor_type;location;lat;lon;timestamp;temperature;humidity
51793;DHT22;37850;53.178;6.376;2023-05-07T00:02:02;13.00;99.90
51793;DHT22;37850;53.178;6.376;2023-05-07T00:04:29;13.00;99.90
51793;DHT22;37850;53.178;6.376;2023-05-07T00:07:01;12.90;99.90
51793;DHT22;37850;53.178;6.376;2023-05-07T00:09:27;12.90;99.90
51793;DHT22;37850;53.178;6.376;2023-05-07T00:11:52;12.90;99.90
51793;DHT22;37850;53.178;6.376;2023-05-07T00:14:18;12.90;99.90
51793;DHT22;37850;53.178;6.376;2023-05-07T00:16:44;12.80;99.90
51793;DHT22;37850;53.178;6.376;2023-05-07T00:19:09;12.80;99.90
51793;DHT22;37850;53.178;6.376;2023-05-07T00:21:35;12.80;99.90
51793;DHT22;37850;53.178;6.376;2023-05-07T00:24:01;12.80;99.90
51793;DHT22;37850;53.178;6.376;2023-05-07T00:26:27;12.70;99.90
51793;DHT22;37850;53.178;6.376;2023-05-07T00:28:52;12.80;99.90
51793;DHT22;37850;53.178;6.376;2023-05-07T00:31:18;12.80;99.90
51793;DHT22;37850;53.178;6.376;2023-05-07T00:33:44;12.70;99.90
51793;DHT22;37850;53.178;6.376;2023-05-07T00:36:12;12.90;99.90
51793;DHT22;37850;53.178;6.376;2023-05-07T00:38:38;12.70;99.90
51793;DHT22;37850;53.178;6.376;2023-05-07T00:41:04;12.70;99.90
51793;DHT22;37850;53.178;6.376;2023-05-07T00:43:30;12.60;99.90
51793;DHT22;37850;53.178;6.376;2023-05-07T00:45:57;12.60;99.90
51793;DHT22;37850;53.178;6.376;2023-05-07T00:48:23;12.60;99.90
51793;DHT22;37850;53.178;6.376;2023-05-07T00:50:50;12.50;99.90
51793;DHT22;37850;53.178;6.376;2023-05-07T00:53:16;12.60;99.90
51793;DHT22;37850;53.178;6.376;2023-05-07T00:55:41;12.50;99.90
51793;DHT22;37850;53.178;6.376;2023-05-07T00:58:08;12.50;99.90
51793;DHT22;37850;53.178;6.376;2023-05-07T01:00:34;12.50;99.90
51793;DHT22;37850;53.178;6.376;2023-05-07T01:03:00;12.50;99.90
51793;DHT22;37850;53.178;6.376;2023-05-07T01:05:26;12.50;99.90
51793;DHT22;37850;53.178;6.376;2023-05-07T01:07:53;12.40;99.90
51793;DHT22;37850;53.178;6.376;2023-05-07T01:10:21;12.40;99.90
51793;DHT22;37850;53.178;6.376;2023-05-07T01:12:48;12.40;99.90
51793;DHT22;37850;53.178;6.376;2023-05-07T01:15:16;12.40;99.90
51793;DHT22;37850;53.178;6.376;2023-05-07T01:17:45;12.40;99.90
51793;DHT22;37850;53.178;6.376;2023-05-07T01:20:12;12.40;99.90
51793;DHT22;37850;53.178;6.376;2023-05-07T01:22:39;12.40;99.90
51793;DHT22;37850;53.178;6.376;2023-05-07T01:25:07;12.40;99.90
51793;DHT22;37850;53.178;6.376;2023-05-07T01:27:33;12.30;99.90
51793;DHT22;37850;53.178;6.376;2023-05-07T01:30:01;12.30;99.90
51793;DHT22;37850;53.178;6.376;2023-05-07T01:35:19;12.30;99.90
51793;DHT22;37850;53.178;6.376;2023-05-07T01:37:47;12.30;99.90
51793;DHT22;37850;53.178;6.376;2023-05-07T01:40:13;12.20;99.90
51793;DHT22;37850;53.178;6.376;2023-05-07T01:42:39;12.20;99.90
51793;DHT22;37850;53.178;6.376;2023-05-07T01:45:07;12.20;99.90
51793;DHT22;37850;53.178;6.376;2023-05-07T01:47:33;12.20;99.90
51793;DHT22;37850;53.178;6.376;2023-05-07T01:49:59;12.20;99.90
51793;DHT22;37850;53.178;6.376;2023-05-07T01:52:27;12.20;99.90
51793;DHT22;37850;53.178;6.376;2023-05-07T01:54:53;12.10;99.90
51793;DHT22;37850;53.178;6.376;2023-05-07T01:57:19;12.10;99.90
51793;DHT22;37850;53.178;6.376;2023-05-07T01:59:44;12.00;99.90
51793;DHT22;37850;53.178;6.376;2023-05-07T02:02:10;12.00;99.90
51793;DHT22;37850;53.178;6.376;2023-05-07T02:04:36;12.00;99.90
51793;DHT22;37850;53.178;6.376;2023-05-07T02:07:02;12.00;99.90
51793;DHT22;37850;53.178;6.376;2023-05-07T02:09:28;11.90;99.90
51793;DHT22;37850;53.178;6.376;2023-05-07T02:11:53;11.90;99.90
51793;DHT22;37850;53.178;6.376;2023-05-07T02:14:19;11.80;99.90
51793;DHT22;37850;53.178;6.376;2023-05-07T02:16:46;11.80;99.90
51793;DHT22;37850;53.178;6.376;2023-05-07T02:19:11;11.80;99.90
51793;DHT22;37850;53.178;6.376;2023-05-07T02:21:37;11.80;99.90
51793;DHT22;37850;53.178;6.376;2023-05-07T02:24:03;11.80;99.90
51793;DHT22;37850;53.178;6.376;2023-05-07T02:26:29;11.70;99.90
51793;DHT22;37850;53.178;6.376;2023-05-07T02:28:54;11.70;99.90
51793;DHT22;37850;53.178;6.376;2023-05-07T02:31:20;11.70;99.90
51793;DHT22;37850;53.178;6.376;2023-05-07T02:33:46;11.70;99.90
51793;DHT22;37850;53.178;6.376;2023-05-07T02:36:12;11.60;99.90
51793;DHT22;37850;53.178;6.376;2023-05-07T02:38:38;11.70;99.90
51793;DHT22;37850;53.178;6.376;2023-05-07T02:41:04;11.60;99.90
51793;DHT22;37850;53.178;6.376;2023-05-07T02:43:30;11.60;99.90
51793;DHT22;37850;53.178;6.376;2023-05-07T02:46:06;11.60;99.90
51793;DHT22;37850;53.178;6.376;2023-05-07T02:48:32;11.60;99.90
51793;DHT22;37850;53.178;6.376;2023-05-07T02:50:59;11.60;99.90
51793;DHT22;37850;53.178;6.376;2023-05-07T02:53:25;11.60;99.90
51793;DHT22;37850;53.178;6.376;2023-05-07T02:55:55;11.60;99.90
51793;DHT22;37850;53.178;6.376;2023-05-07T02:58:22;11.60;99.90
51793;DHT22;37850;53.178;6.376;2023-05-07T03:00:48;11.70;99.90
51793;DHT22;37850;53.178;6.376;2023-05-07T03:03:14;11.50;99.90
51793;DHT22;37850;53.178;6.376;2023-05-07T03:05:40;11.50;99.90
51793;DHT22;37850;53.178;6.376;2023-05-07T03:08:06;11.50;99.90
51793;DHT22;37850;53.178;6.376;2023-05-07T03:10:32;11.50;99.90
51793;DHT22;37850;53.178;6.376;2023-05-07T03:12:58;11.50;99.90
51793;DHT22;37850;53.178;6.376;2023-05-07T03:15:24;11.50;99.90
51793;DHT22;37850;53.178;6.376;2023-05-07T03:17:50;11.40;99.90
51793;DHT22;37850;53.178;6.376;2023-05-07T03:20:16;11.50;99.90
51793;DHT22;37850;53.178;6.376;2023-05-07T03:22:41;11.40;99.90
51793;DHT22;37850;53.178;6.376;2023-05-07T03:25:08;11.30;99.90
51793;DHT22;37850;53.178;6.376;2023-05-07T03:27:34;11.40;99.90
51793;DHT22;37850;53.178;6.376;2023-05-07T03:30:00;11.40;99.90
51793;DHT22;37850;53.178;6.376;2023-05-07T03:32:26;11.40;99.90
51793;DHT22;37850;53.178;6.376;2023-05-07T03:34:52;11.40;99.90
51793;DHT22;37850;53.178;6.376;2023-05-07T03:37:18;11.30;99.90
51793;DHT22;37850;53.178;6.376;2023-05-07T03:39:44;11.30;99.90
51793;DHT22;37850;53.178;6.376;2023-05-07T03:42:10;11.30;99.90
51793;DHT22;37850;53.178;6.376;2023-05-07T03:44:36;11.30;99.90
51793;DHT22;37850;53.178;6.376;2023-05-07T03:47:02;11.30;99.90
51793;DHT22;37850;53.178;6.376;2023-05-07T03:49:28;11.30;99.90
51793;DHT22;37850;53.178;6.376;2023-05-07T03:51:54;11.30;99.90
51793;DHT22;37850;53.178;6.376;2023-05-07T03:54:20;11.30;99.90
51793;DHT22;37850;53.178;6.376;2023-05-07T03:56:46;11.30;99.90
51793;DHT22;37850;53.178;6.376;2023-05-07T03:59:12;11.30;99.90
51793;DHT22;37850;53.178;6.376;2023-05-07T04:01:38;11.30;99.90
51793;DHT22;37850;53.178;6.376;2023-05-07T04:04:05;11.30;99.90
51793;DHT22;37850;53.178;6.376;2023-05-07T04:06:30;11.30;99.90
51793;DHT22;37850;53.178;6.376;2023-05-07T04:08:57;11.20;99.90
51793;DHT22;37850;53.178;6.376;2023-05-07T04:11:23;11.30;99.90
51793;DHT22;37850;53.178;6.376;2023-05-07T04:13:49;11.30;99.90
51793;DHT22;37850;53.178;6.376;2023-05-07T04:16:15;11.20;99.90
51793;DHT22;37850;53.178;6.376;2023-05-07T04:18:41;11.20;99.90
51793;DHT22;37850;53.178;6.376;2023-05-07T04:21:20;11.20;99.90
51793;DHT22;37850;53.178;6.376;2023-05-07T04:23:49;11.20;99.90
51793;DHT22;37850;53.178;6.376;2023-05-07T04:26:15;11.20;99.90
51793;DHT22;37850;53.178;6.376;2023-05-07T04:28:41;11.10;99.90
51793;DHT22;37850;53.178;6.376;2023-05-07T04:31:07;11.20;99.90
51793;DHT22;37850;53.178;6.376;2023-05-07T04:33:33;11.10;99.90
51793;DHT22;37850;53.178;6.376;2023-05-07T04:36:02;11.10;99.90
51793;DHT22;37850;53.178;6.376;2023-05-07T04:38:30;11.10;99.90
51793;DHT22;37850;53.178;6.376;2023-05-07T04:41:03;11.10;99.90
51793;DHT22;37850;53.178;6.376;2023-05-07T04:43:29;11.10;99.90
51793;DHT22;37850;53.178;6.376;2023-05-07T04:45:55;11.00;99.90
51793;DHT22;37850;53.178;6.376;2023-05-07T04:48:20;11.40;99.90
51793;DHT22;37850;53.178;6.376;2023-05-07T04:50:50;11.00;99.90
51793;DHT22;37850;53.178;6.376;2023-05-07T04:53:17;11.00;99.90
51793;DHT22;37850;53.178;6.376;2023-05-07T04:55:43;11.00;99.90
51793;DHT22;37850;53.178;6.376;2023-05-07T04:58:09;11.00;99.90
51793;DHT22;37850;53.178;6.376;2023-05-07T05:00:35;10.90;99.90
51793;DHT22;37850;53.178;6.376;2023-05-07T05:03:01;10.90;99.90
51793;DHT22;37850;53.178;6.376;2023-05-07T05:05:26;11.00;99.90
51793;DHT22;37850;53.178;6.376;2023-05-07T05:07:52;10.90;99.90
51793;DHT22;37850;53.178;6.376;2023-05-07T05:10:18;10.90;99.90
51793;DHT22;37850;53.178;6.376;2023-05-07T05:12:44;10.90;99.90
51793;DHT22;37850;53.178;6.376;2023-05-07T05:15:11;10.90;99.90
51793;DHT22;37850;53.178;6.376;2023-05-07T05:17:37;10.90;99.90
51793;DHT22;37850;53.178;6.376;2023-05-07T05:20:03;10.80;99.90
51793;DHT22;37850;53.178;6.376;2023-05-07T05:22:29;10.80;99.90
51793;DHT22;37850;53.178;6.376;2023-05-07T05:24:56;10.80;99.90
51793;DHT22;37850;53.178;6.376;2023-05-07T05:27:22;10.80;99.90
51793;DHT22;37850;53.178;6.376;2023-05-07T05:29:48;10.80;99.90
51793;DHT22;37850;53.178;6.376;2023-05-07T05:32:13;10.80;99.90
51793;DHT22;37850;53.178;6.376;2023-05-07T05:34:39;10.80;99.90
51793;DHT22;37850;53.178;6.376;2023-05-07T05:37:05;10.80;99.90
51793;DHT22;37850;53.178;6.376;2023-05-07T05:39:31;10.80;99.90
51793;DHT22;37850;53.178;6.376;2023-05-07T05:41:56;10.80;99.90
51793;DHT22;37850;53.178;6.376;2023-05-07T05:44:22;10.80;99.90
51793;DHT22;37850;53.178;6.376;2023-05-07T05:46:49;10.80;99.90
51793;DHT22;37850;53.178;6.376;2023-05-07T05:49:15;10.80;99.90
51793;DHT22;37850;53.178;6.376;2023-05-07T05:51:42;10.80;99.90
51793;DHT22;37850;53.178;6.376;2023-05-07T05:54:09;10.80;99.90
51793;DHT22;37850;53.178;6.376;2023-05-07T05:56:36;10.80;99.90
51793;DHT22;37850;53.178;6.376;2023-05-07T05:59:01;10.80;99.90
51793;DHT22;37850;53.178;6.376;2023-05-07T06:01:27;10.80;99.90
51793;DHT22;37850;53.178;6.376;2023-05-07T06:03:53;10.80;99.90
51793;DHT22;37850;53.178;6.376;2023-05-07T06:06:19;10.80;99.90
51793;DHT22;37850;53.178;6.376;2023-05-07T06:08:44;10.80;99.90
51793;DHT22;37850;53.178;6.376;2023-05-07T06:11:11;10.80;99.90
51793;DHT22;37850;53.178;6.376;2023-05-07T06:13:38;10.80;99.90
51793;DHT22;37850;53.178;6.376;2023-05-07T06:16:05;10.80;99.90
51793;DHT22;37850;53.178;6.376;2023-05-07T06:18:31;10.80;99.90
51793;DHT22;37850;53.178;6.376;2023-05-07T06:20:57;10.90;99.90
51793;DHT22;37850;53.178;6.376;2023-05-07T06:23:23;10.90;99.90
51793;DHT22;37850;53.178;6.376;2023-05-07T06:25:49;10.90;99.90
51793;DHT22;37850;53.178;6.376;2023-05-07T06:28:18;10.90;99.90
51793;DHT22;37850;53.178;6.376;2023-05-07T06:30:44;10.90;99.90
51793;DHT22;37850;53.178;6.376;2023-05-07T06:33:09;10.90;99.90
51793;DHT22;37850;53.178;6.376;2023-05-07T06:35:35;10.90;99.90
51793;DHT22;37850;53.178;6.376;2023-05-07T06:38:01;11.30;99.90
51793;DHT22;37850;53.178;6.376;2023-05-07T06:40:27;10.90;99.90
51793;DHT22;37850;53.178;6.376;2023-05-07T06:42:53;11.00;99.90
51793;DHT22;37850;53.178;6.376;2023-05-07T06:45:19;11.00;99.90
51793;DHT22;37850;53.178;6.376;2023-05-07T06:47:45;11.00;99.90
51793;DHT22;37850;53.178;6.376;2023-05-07T06:50:11;11.00;99.90
51793;DHT22;37850;53.178;6.376;2023-05-07T06:52:37;11.10;99.90
51793;DHT22;37850;53.178;6.376;2023-05-07T06:55:03;11.10;99.90
51793;DHT22;37850;53.178;6.376;2023-05-07T06:57:29;11.10;99.90
51793;DHT22;37850;53.178;6.376;2023-05-07T06:59:55;11.10;99.90
51793;DHT22;37850;53.178;6.376;2023-05-07T07:02:21;11.10;99.90
51793;DHT22;37850;53.178;6.376;2023-05-07T07:04:47;11.10;99.90
51793;DHT22;37850;53.178;6.376;2023-05-07T07:07:13;11.10;99.90
51793;DHT22;37850;53.178;6.376;2023-05-07T07:09:38;11.10;99.90
51793;DHT22;37850;53.178;6.376;2023-05-07T07:12:04;11.20;99.90
51793;DHT22;37850;53.178;6.376;2023-05-07T07:14:30;11.10;99.90
51793;DHT22;37850;53.178;6.376;2023-05-07T07:16:56;11.00;99.90
51793;DHT22;37850;53.178;6.376;2023-05-07T07:19:22;11.00;99.90
51793;DHT22;37850;53.178;6.376;2023-05-07T07:21:47;11.00;99.90
51793;DHT22;37850;53.178;6.376;2023-05-07T07:24:14;11.00;99.90
51793;DHT22;37850;53.178;6.376;2023-05-07T07:26:45;11.00;99.90
51793;DHT22;37850;53.178;6.376;2023-05-07T07:29:10;11.00;99.90
51793;DHT22;37850;53.178;6.376;2023-05-07T07:31:36;11.00;99.90
51793;DHT22;37850;53.178;6.376;2023-05-07T07:34:02;11.00;99.90
51793;DHT22;37850;53.178;6.376;2023-05-07T07:36:28;11.00;99.90
51793;DHT22;37850;53.178;6.376;2023-05-07T07:38:54;11.10;99.90
51793;DHT22;37850;53.178;6.376;2023-05-07T07:41:19;11.00;99.90
51793;DHT22;37850;53.178;6.376;2023-05-07T07:43:45;11.10;99.90
51793;DHT22;37850;53.178;6.376;2023-05-07T07:46:12;11.10;99.90
51793;DHT22;37850;53.178;6.376;2023-05-07T07:48:38;11.10;99.90
51793;DHT22;37850;53.178;6.376;2023-05-07T07:51:04;11.10;99.90
51793;DHT22;37850;53.178;6.376;2023-05-07T07:53:30;11.10;99.90
51793;DHT22;37850;53.178;6.376;2023-05-07T07:55:56;11.20;99.90
51793;DHT22;37850;53.178;6.376;2023-05-07T07:58:22;11.20;99.90
51793;DHT22;37850;53.178;6.376;2023-05-07T08:00:48;11.20;99.90
51793;DHT22;37850;53.178;6.376;2023-05-07T08:03:14;11.20;99.90
51793;DHT22;37850;53.178;6.376;2023-05-07T08:05:42;11.20;99.90
51793;DHT22;37850;53.178;6.376;2023-05-07T08:08:08;11.20;99.90
51793;DHT22;37850;53.178;6.376;2023-05-07T08:10:33;11.30;99.90
51793;DHT22;37850;53.178;6.376;2023-05-07T08:13:00;11.30;99.90
51793;DHT22;37850;53.178;6.376;2023-05-07T08:15:26;11.30;99.90
51793;DHT22;37850;53.178;6.376;2023-05-07T08:17:52;11.30;99.90
51793;DHT22;37850;53.178;6.376;2023-05-07T08:20:18;11.30;99.90
51793;DHT22;37850;53.178;6.376;2023-05-07T08:22:43;11.40;99.90
51793;DHT22;37850;53.178;6.376;2023-05-07T08:25:09;11.40;99.90
51793;DHT22;37850;53.178;6.376;2023-05-07T08:27:37;11.40;99.90
51793;DHT22;37850;53.178;6.376;2023-05-07T08:30:04;11.50;99.90
51793;DHT22;37850;53.178;6.376;2023-05-07T08:32:30;11.50;99.90
51793;DHT22;37850;53.178;6.376;2023-05-07T08:34:56;11.60;99.90
51793;DHT22;37850;53.178;6.376;2023-05-07T08:37:21;11.60;99.90
51793;DHT22;37850;53.178;6.376;2023-05-07T08:39:47;11.70;99.90
51793;DHT22;37850;53.178;6.376;2023-05-07T08:42:16;11.70;99.90
51793;DHT22;37850;53.178;6.376;2023-05-07T08:44:45;11.70;99.90
51793;DHT22;37850;53.178;6.376;2023-05-07T08:47:13;11.70;99.90
51793;DHT22;37850;53.178;6.376;2023-05-07T08:49:39;11.80;99.90
51793;DHT22;37850;53.178;6.376;2023-05-07T08:52:05;11.80;99.90
51793;DHT22;37850;53.178;6.376;2023-05-07T08:54:32;11.80;99.90
51793;DHT22;37850;53.178;6.376;2023-05-07T08:57:02;11.90;99.90
51793;DHT22;37850;53.178;6.376;2023-05-07T08:59:28;11.90;99.90
51793;DHT22;37850;53.178;6.376;2023-05-07T09:01:53;12.00;99.90
51793;DHT22;37850;53.178;6.376;2023-05-07T09:04:19;12.00;99.90
51793;DHT22;37850;53.178;6.376;2023-05-07T09:06:45;12.00;99.90
51793;DHT22;37850;53.178;6.376;2023-05-07T09:09:17;12.10;99.90
51793;DHT22;37850;53.178;6.376;2023-05-07T09:11:44;12.10;99.90
51793;DHT22;37850;53.178;6.376;2023-05-07T09:14:09;12.10;99.90
51793;DHT22;37850;53.178;6.376;2023-05-07T09:16:35;12.20;99.90
51793;DHT22;37850;53.178;6.376;2023-05-07T09:19:01;12.30;99.90
51793;DHT22;37850;53.178;6.376;2023-05-07T09:21:27;12.30;99.90
51793;DHT22;37850;53.178;6.376;2023-05-07T09:23:54;12.30;99.90
51793;DHT22;37850;53.178;6.376;2023-05-07T09:26:24;12.40;99.90
51793;DHT22;37850;53.178;6.376;2023-05-07T09:28:50;12.40;99.90
51793;DHT22;37850;53.178;6.376;2023-05-07T09:31:16;12.50;99.90
51793;DHT22;37850;53.178;6.376;2023-05-07T09:33:42;12.50;99.90
51793;DHT22;37850;53.178;6.376;2023-05-07T09:36:11;12.50;99.90
51793;DHT22;37850;53.178;6.376;2023-05-07T09:38:37;12.60;99.90
51793;DHT22;37850;53.178;6.376;2023-05-07T09:41:08;12.70;99.90
51793;DHT22;37850;53.178;6.376;2023-05-07T09:43:35;12.70;99.90
51793;DHT22;37850;53.178;6.376;2023-05-07T09:46:12;12.80;99.90
51793;DHT22;37850;53.178;6.376;2023-05-07T09:48:40;12.90;99.90
51793;DHT22;37850;53.178;6.376;2023-05-07T09:53:41;13.00;99.90
51793;DHT22;37850;53.178;6.376;2023-05-07T09:56:07;13.00;99.90
51793;DHT22;37850;53.178;6.376;2023-05-07T09:58:37;13.10;99.90
51793;DHT22;37850;53.178;6.376;2023-05-07T10:01:03;13.10;99.90
51793;DHT22;37850;53.178;6.376;2023-05-07T10:03:31;13.20;99.90
51793;DHT22;37850;53.178;6.376;2023-05-07T10:05:58;13.20;99.90
51793;DHT22;37850;53.178;6.376;2023-05-07T10:08:25;13.10;99.90
51793;DHT22;37850;53.178;6.376;2023-05-07T10:10:51;13.30;99.90
51793;DHT22;37850;53.178;6.376;2023-05-07T10:13:18;13.40;99.90
51793;DHT22;37850;53.178;6.376;2023-05-07T10:15:44;13.40;99.90
51793;DHT22;37850;53.178;6.376;2023-05-07T10:18:12;13.50;99.90
51793;DHT22;37850;53.178;6.376;2023-05-07T10:20:39;13.60;99.90
51793;DHT22;37850;53.178;6.376;2023-05-07T10:23:05;13.60;99.90
51793;DHT22;37850;53.178;6.376;2023-05-07T10:25:34;13.70;99.90
51793;DHT22;37850;53.178;6.376;2023-05-07T10:28:07;13.70;99.90
51793;DHT22;37850;53.178;6.376;2023-05-07T10:30:55;13.80;99.90
51793;DHT22;37850;53.178;6.376;2023-05-07T10:33:27;13.90;99.90
51793;DHT22;37850;53.178;6.376;2023-05-07T10:35:57;13.90;99.90
51793;DHT22;37850;53.178;6.376;2023-05-07T10:38:24;14.00;99.90
51793;DHT22;37850;53.178;6.376;2023-05-07T10:40:51;14.10;99.90
51793;DHT22;37850;53.178;6.376;2023-05-07T10:43:17;14.10;99.90
51793;DHT22;37850;53.178;6.376;2023-05-07T10:45:42;14.20;99.90
51793;DHT22;37850;53.178;6.376;2023-05-07T10:48:17;14.20;99.90
51793;DHT22;37850;53.178;6.376;2023-05-07T10:50:44;14.30;99.90
51793;DHT22;37850;53.178;6.376;2023-05-07T10:58:28;14.50;99.90
51793;DHT22;37850;53.178;6.376;2023-05-07T11:00:59;14.60;99.90
51793;DHT22;37850;53.178;6.376;2023-05-07T11:03:26;14.70;99.90
51793;DHT22;37850;53.178;6.376;2023-05-07T11:06:14;14.80;99.90
51793;DHT22;37850;53.178;6.376;2023-05-07T11:11:19;14.80;99.90
51793;DHT22;37850;53.178;6.376;2023-05-07T11:13:46;14.90;99.90
51793;DHT22;37850;53.178;6.376;2023-05-07T11:16:23;14.90;99.90
51793;DHT22;37850;53.178;6.376;2023-05-07T11:18:58;15.00;99.90
51793;DHT22;37850;53.178;6.376;2023-05-07T11:21:38;15.10;99.90
51793;DHT22;37850;53.178;6.376;2023-05-07T11:24:08;15.10;99.90
51793;DHT22;37850;53.178;6.376;2023-05-07T11:26:49;15.10;99.90
51793;DHT22;37850;53.178;6.376;2023-05-07T11:29:18;15.10;99.90
51793;DHT22;37850;53.178;6.376;2023-05-07T11:31:51;15.20;99.90
51793;DHT22;37850;53.178;6.376;2023-05-07T11:34:25;15.20;99.90
51793;DHT22;37850;53.178;6.376;2023-05-07T11:36:52;15.30;99.90
51793;DHT22;37850;53.178;6.376;2023-05-07T11:39:29;15.30;99.90
51793;DHT22;37850;53.178;6.376;2023-05-07T11:41:57;15.30;99.90
51793;DHT22;37850;53.178;6.376;2023-05-07T11:44:22;15.40;99.90
51793;DHT22;37850;53.178;6.376;2023-05-07T11:46:49;15.40;99.90
51793;DHT22;37850;53.178;6.376;2023-05-07T11:49:14;15.50;99.90
51793;DHT22;37850;53.178;6.376;2023-05-07T11:51:41;15.60;99.90
51793;DHT22;37850;53.178;6.376;2023-05-07T11:54:08;15.70;99.90
51793;DHT22;37850;53.178;6.376;2023-05-07T11:56:37;15.80;99.90
51793;DHT22;37850;53.178;6.376;2023-05-07T11:59:04;15.90;99.90
51793;DHT22;37850;53.178;6.376;2023-05-07T12:01:30;16.10;99.90
51793;DHT22;37850;53.178;6.376;2023-05-07T12:03:56;16.10;99.90
51793;DHT22;37850;53.178;6.376;2023-05-07T12:06:25;16.10;99.90
51793;DHT22;37850;53.178;6.376;2023-05-07T12:08:51;16.10;99.90
51793;DHT22;37850;53.178;6.376;2023-05-07T12:11:23;16.10;99.90
51793;DHT22;37850;53.178;6.376;2023-05-07T12:13:49;16.10;99.90
51793;DHT22;37850;53.178;6.376;2023-05-07T12:16:15;16.10;99.90
51793;DHT22;37850;53.178;6.376;2023-05-07T12:18:41;16.20;99.90
51793;DHT22;37850;53.178;6.376;2023-05-07T12:21:07;16.20;99.90
51793;DHT22;37850;53.178;6.376;2023-05-07T12:23:37;16.20;99.90
51793;DHT22;37850;53.178;6.376;2023-05-07T12:26:04;16.30;99.90
51793;DHT22;37850;53.178;6.376;2023-05-07T12:28:31;16.40;99.90
51793;DHT22;37850;53.178;6.376;2023-05-07T12:31:01;16.40;99.90
51793;DHT22;37850;53.178;6.376;2023-05-07T12:33:27;16.50;99.90
51793;DHT22;37850;53.178;6.376;2023-05-07T12:35:55;16.50;99.90
51793;DHT22;37850;53.178;6.376;2023-05-07T12:38:21;16.60;99.90
51793;DHT22;37850;53.178;6.376;2023-05-07T12:40:53;16.50;99.90
51793;DHT22;37850;53.178;6.376;2023-05-07T12:43:29;16.60;99.90
51793;DHT22;37850;53.178;6.376;2023-05-07T12:45:57;16.60;99.90
51793;DHT22;37850;53.178;6.376;2023-05-07T12:48:23;16.60;99.90
51793;DHT22;37850;53.178;6.376;2023-05-07T12:50:54;16.60;99.90
51793;DHT22;37850;53.178;6.376;2023-05-07T12:53:22;16.70;99.90
51793;DHT22;37850;53.178;6.376;2023-05-07T12:55:49;16.70;99.90
51793;DHT22;37850;53.178;6.376;2023-05-07T12:58:28;16.80;99.90
51793;DHT22;37850;53.178;6.376;2023-05-07T13:00:55;16.90;99.90
51793;DHT22;37850;53.178;6.376;2023-05-07T13:03:25;17.00;99.90
51793;DHT22;37850;53.178;6.376;2023-05-07T13:05:51;17.10;99.90
51793;DHT22;37850;53.178;6.376;2023-05-07T13:10:53;17.20;99.90
51793;DHT22;37850;53.178;6.376;2023-05-07T13:13:20;17.30;99.90
51793;DHT22;37850;53.178;6.376;2023-05-07T13:15:46;17.50;99.90
51793;DHT22;37850;53.178;6.376;2023-05-07T13:18:12;17.50;99.90
51793;DHT22;37850;53.178;6.376;2023-05-07T13:20:41;17.50;99.90
51793;DHT22;37850;53.178;6.376;2023-05-07T13:23:07;17.60;99.90
51793;DHT22;37850;53.178;6.376;2023-05-07T13:25:33;17.60;99.90
51793;DHT22;37850;53.178;6.376;2023-05-07T13:27:58;17.60;99.90
51793;DHT22;37850;53.178;6.376;2023-05-07T13:30:24;17.70;99.90
51793;DHT22;37850;53.178;6.376;2023-05-07T13:32:53;17.70;99.90
51793;DHT22;37850;53.178;6.376;2023-05-07T13:35:20;17.70;99.90
51793;DHT22;37850;53.178;6.376;2023-05-07T13:37:46;17.70;99.90
51793;DHT22;37850;53.178;6.376;2023-05-07T13:40:14;17.70;99.90
51793;DHT22;37850;53.178;6.376;2023-05-07T13:42:40;17.70;99.90
51793;DHT22;37850;53.178;6.376;2023-05-07T13:45:07;17.70;99.90
51793;DHT22;37850;53.178;6.376;2023-05-07T13:47:34;17.70;99.90
51793;DHT22;37850;53.178;6.376;2023-05-07T13:49:59;17.80;99.90
51793;DHT22;37850;53.178;6.376;2023-05-07T13:52:25;17.80;99.90
51793;DHT22;37850;53.178;6.376;2023-05-07T13:54:51;17.80;99.90
51793;DHT22;37850;53.178;6.376;2023-05-07T13:57:18;17.80;99.90
51793;DHT22;37850;53.178;6.376;2023-05-07T13:59:44;17.80;99.90
51793;DHT22;37850;53.178;6.376;2023-05-07T14:02:10;17.80;99.90
51793;DHT22;37850;53.178;6.376;2023-05-07T14:04:36;17.80;99.90
51793;DHT22;37850;53.178;6.376;2023-05-07T14:07:03;17.90;99.90
51793;DHT22;37850;53.178;6.376;2023-05-07T14:09:29;17.80;99.90
51793;DHT22;37850;53.178;6.376;2023-05-07T14:11:55;17.80;99.90
51793;DHT22;37850;53.178;6.376;2023-05-07T14:14:20;17.90;99.90
51793;DHT22;37850;53.178;6.376;2023-05-07T14:16:46;17.90;99.90
51793;DHT22;37850;53.178;6.376;2023-05-07T14:19:12;17.90;99.90
51793;DHT22;37850;53.178;6.376;2023-05-07T14:21:39;17.90;99.90
51793;DHT22;37850;53.178;6.376;2023-05-07T14:24:06;17.90;99.90
51793;DHT22;37850;53.178;6.376;2023-05-07T14:26:33;17.90;99.90
51793;DHT22;37850;53.178;6.376;2023-05-07T14:28:59;17.90;99.90
51793;DHT22;37850;53.178;6.376;2023-05-07T14:31:25;17.90;99.90
51793;DHT22;37850;53.178;6.376;2023-05-07T14:33:51;17.90;99.90
51793;DHT22;37850;53.178;6.376;2023-05-07T14:36:18;17.90;99.90
51793;DHT22;37850;53.178;6.376;2023-05-07T14:38:48;17.90;99.90
51793;DHT22;37850;53.178;6.376;2023-05-07T14:41:14;18.00;99.90
51793;DHT22;37850;53.178;6.376;2023-05-07T14:43:41;18.00;99.90
51793;DHT22;37850;53.178;6.376;2023-05-07T14:46:07;18.00;99.90
51793;DHT22;37850;53.178;6.376;2023-05-07T14:48:33;18.00;99.90
51793;DHT22;37850;53.178;6.376;2023-05-07T14:50:59;18.00;99.90
51793;DHT22;37850;53.178;6.376;2023-05-07T14:53:27;18.10;99.90
51793;DHT22;37850;53.178;6.376;2023-05-07T14:55:53;18.10;99.90
51793;DHT22;37850;53.178;6.376;2023-05-07T14:58:19;18.20;99.90
51793;DHT22;37850;53.178;6.376;2023-05-07T15:00:45;18.30;99.90
51793;DHT22;37850;53.178;6.376;2023-05-07T15:03:11;18.30;99.90
51793;DHT22;37850;53.178;6.376;2023-05-07T15:05:40;18.30;99.90
51793;DHT22;37850;53.178;6.376;2023-05-07T15:08:07;18.30;99.90
51793;DHT22;37850;53.178;6.376;2023-05-07T15:10:36;18.30;99.90
51793;DHT22;37850;53.178;6.376;2023-05-07T15:13:11;18.40;99.90
51793;DHT22;37850;53.178;6.376;2023-05-07T15:15:42;18.40;99.90
51793;DHT22;37850;53.178;6.376;2023-05-07T15:18:09;18.40;99.90
51793;DHT22;37850;53.178;6.376;2023-05-07T15:20:37;18.40;99.90
51793;DHT22;37850;53.178;6.376;2023-05-07T15:23:03;18.40;99.90
51793;DHT22;37850;53.178;6.376;2023-05-07T15:25:31;18.40;99.90
51793;DHT22;37850;53.178;6.376;2023-05-07T15:27:58;18.40;99.90
51793;DHT22;37850;53.178;6.376;2023-05-07T15:30:24;18.40;99.90
51793;DHT22;37850;53.178;6.376;2023-05-07T15:32:50;18.40;99.90
51793;DHT22;37850;53.178;6.376;2023-05-07T15:35:16;18.40;99.90
51793;DHT22;37850;53.178;6.376;2023-05-07T15:37:42;18.50;99.90
51793;DHT22;37850;53.178;6.376;2023-05-07T15:40:09;18.50;99.90
51793;DHT22;37850;53.178;6.376;2023-05-07T15:42:35;18.50;99.90
51793;DHT22;37850;53.178;6.376;2023-05-07T15:45:02;18.60;99.90